This is the latest recevied weather packets stored in our database for station/object DC1MAK-13. If no packets are shown the sender has not sent any weather packets the latest 10 day(s).
| Time | Temp. | Humidity | Pressure | Rain* | Wind** | Luminosity | Snow |
|---|---|---|---|---|---|---|---|
| 1787504159 | 29.44° C | 30% | 991.6 hPa | - | - | - | - |
| 1787504153 | 29.44° C | 30% | 991.6 hPa | - | - | - | - |
| 1787503855 | 28.33° C | 31% | 991.6 hPa | - | - | - | - |
| 1787503849 | 28.33° C | 31% | 991.6 hPa | - | - | - | - |
| 1787503552 | 27.22° C | 31% | 991.6 hPa | - | - | - | - |
| 1787502947 | 28.33° C | 30% | 991.7 hPa | - | - | - | - |
| 1787502647 | 27.78° C | 31% | 991.7 hPa | - | - | - | - |
| 1787502338 | 28.33° C | 29% | 991.7 hPa | - | - | - | - |
| 1787502034 | 26.11° C | 32% | 991.7 hPa | - | - | - | - |
| 1787502028 | 26.11° C | 32% | 991.7 hPa | - | - | - | - |
| 1787501731 | 22.78° C | 39% | 991.7 hPa | - | - | - | - |
| 1787501127 | 22.78° C | 38% | 991.8 hPa | - | - | - | - |
| 1787500821 | 23.89° C | 37% | 991.8 hPa | - | - | - | - |
| 1787500815 | 23.89° C | 37% | 991.8 hPa | - | - | - | - |
| 1787500517 | 25° C | 34% | 991.7 hPa | - | - | - | - |
| 1787500214 | 26.67° C | 33% | 991.7 hPa | - | - | - | - |
| 1787500208 | 26.67° C | 33% | 991.7 hPa | - | - | - | - |
| 1787499910 | 26.67° C | 32% | 991.8 hPa | - | - | - | - |
| 1787499904 | 26.67° C | 32% | 991.8 hPa | - | - | - | - |
| 1787499601 | 26.11° C | 34% | 991.8 hPa | - | - | - | - |
| 1787499307 | 25° C | 35% | 991.6 hPa | - | - | - | - |
| 1787499000 | 24.44° C | 35% | 991.6 hPa | - | - | - | - |
| 1787498994 | 24.44° C | 35% | 991.6 hPa | - | - | - | - |
| 1787498697 | 23.33° C | 38% | 991.7 hPa | - | - | - | - |
| 1787498393 | 22.78° C | 40% | 991.7 hPa | - | - | - | - |
* Rain since midnight (hover to see other rain measurements)
** Current wind speed in m/s (hover to see current wind gust speed)